Virginia Peak (RGX), Nevada Weather observations

 Day   Time    Ave.   Ave.  Ave.  Vector  Max.   Total    Solar  
  of    of     Air    Rel.  Wind   Wind   Wind  Precip.   Rad.   
Year   Day     Temp.  Hum.  Speed  Dir.   Gust                   
2014   (PST)    F      %     mph   deg.    mph    in.     W/m2  
----------------------------------------------------------------
 330    9:15   46.0    34   25.8   257     2.6   999.00     999
 330    9:30   47.0    32   22.8   259    29.4   999.00     999
 330    9:45  999.0    31   25.2   999    27.0   999.00     999
 330   10:00   48.0   999   27.0   264    28.2   999.00     999
 330   10:15   49.0    30   24.0   999    28.2   999.00     999
 330   10:30   49.0    30   28.8   260    29.4   999.00     999
 330   10:45   49.0    31   27.6   259    31.8   999.00     999
 330   11:00   50.0    30   27.6   260    32.4   999.00     999
 330   11:15   50.0    25   30.0   259    31.8   999.00     999
 330   11:30   51.0   999   34.2   258   999.0   999.00     999
 330   11:45   51.0    30   28.8   251    33.0   999.00     999
 330   12:00   51.0   999   28.2   260     5.6   999.00     999
 330   12:15   52.0    61   28.2   237    30.0   999.00     999
 330   12:30   52.0    28   25.8   256    29.4   999.00     999
 330   12:45  999.0    28  999.0   999    28.2   999.00     999
 330   13:00   52.0    27   25.2   250    27.6   999.00     999
 330   13:15   53.0    28  999.0   999    27.0   999.00     999
 330   13:30  999.0   999  166.1   247   999.0   999.00     999
 330   13:45  999.0   999   23.4   245    31.2   999.00     999
 330   14:00   53.0    29   25.2   251    31.8   999.00     999
 330   14:15   37.0    29   26.4   244    31.8   999.00     999
 330   14:30   57.0    29   25.8   248    31.2   999.00     999
 330   14:45   52.0    29   24.0   252    28.0   999.00     999
 330   15:00  999.0    30  999.0   244    27.0   999.00     999
 330   15:15   51.0    31   25.2   251    28.2   999.00     999
 330   15:30   51.0    31  999.0   245    27.0   999.00     999
 330   15:45   51.0    31   25.2   250    27.6   999.00     999
 330   16:00   51.0    31   27.0   242    29.4   999.00     999
 330   16:15   50.0   999   25.2   999    30.6   999.00     999
 330   16:30  999.0    32   25.2   999    28.2   999.00     999
 330   16:45   50.0    33   21.0   240    28.8   999.00     999
 330   17:00   49.0    33   27.0   246    29.4   999.00     999
 330   17:15   49.0    33   32.4   238    33.6   999.00     999
 330   17:30   49.0    33   30.0   250    33.0   999.00     999
 330   17:45   49.0   999   29.4   999    26.6   999.00     999
 330   18:00   49.0    33   25.8   252    34.2   999.00     999
 330   18:15   48.0    34   24.0   244    30.0   999.00     999
 330   18:30  999.0    34   24.6   246    29.4   999.00     999
 330   18:45   47.0    35   23.4   246    27.0   999.00     999
 330   19:00   47.0    36   24.6   244    27.6   999.00     999
 330   19:15  999.0    34   25.8   232    28.2   999.00     999
 330   19:30   49.0   999   28.8   236    32.4   999.00     999
 330   19:45  999.0    33   28.8   229    33.6   999.00     999
 330   20:00   48.0    33   23.4   220    33.0   999.00     999
 330   20:15   48.0    33  999.0   999    33.0   999.00     999
 330   20:30  999.0   999   30.6   231    34.2   999.00     999
 330   20:45   48.0    33   33.6   999    36.0   999.00     999
 330   21:00  999.0    35  999.0   241    40.2   999.00     999
 330   21:15   47.0    34   36.4   227    39.0   999.00     999
 330   21:30   47.0    34   34.8   245    40.8   999.00     999
 330   21:45  999.0   999  999.0   999   999.0   999.00     999
 330   22:00   47.0    34  999.0   232   999.0   999.00     999
 330   22:15   47.0    34   36.0   231    39.0   999.00     999
 330   22:30   47.0    33   34.2   234    37.8   999.00     999
 330   22:45   47.0    34   36.6   235    37.8   999.00     999
 330   23:00   47.0   999   36.2   235   999.0   999.00     999
 330   23:15   46.0    34   33.0   241    39.0   999.00     999
 330   23:30  999.0   999   34.8   236    39.0   999.00     999
 330   23:45   46.0    34    6.8   231    39.0   999.00     999
 331    0:00   46.0    34   33.6   233    36.6   999.00     999
 331    0:15  999.0   999  999.0   999   999.0   999.00     999
 331    0:30   47.0    34   84.2   240    33.6   999.00     999
 331    0:45  999.0    34   32.4   238    34.2   999.00     999
 331    1:00   44.0    34   32.4   234    34.2   999.00     999
 331    1:15   45.0    33   34.2   239    36.6   999.00     999
 331    1:30   45.0    34   82.4   229    39.6   999.00     999
 331    1:45   45.0    33   30.0   233    36.6   999.00     999
 331    2:00   44.0    98   31.8   239    33.4   999.00     999
 331    2:15   44.0    33   34.8   236    37.2   999.00     999
 331    2:30   44.0    33   31.2   233    37.2   999.00     999
 331    2:45   45.0   999   39.0   230   999.0   999.00     999
 331    3:00   45.0    33   31.8   233    38.4   999.00     999
 331    3:15   45.0    33   34.2   234    35.4   999.00     999
 331    3:30   45.0    33   33.6   999    37.8   999.00     999
 331    3:45   45.0    33   28.2   233    36.0   999.00     999
 331    4:00   45.0   999   32.4   229    34.8   999.00     999
 331    4:15   45.0    33   28.8   229    35.4   999.00     999
 331    4:30   44.0    34   28.2   231    34.2   999.00     999
 331    4:45   44.0   999   32.4   999    32.4   999.00     999
 331    5:00   45.0    33   30.6   232    31.8   999.00     999
 331    5:15   44.0   999   27.0   239    31.4   999.00     999
 331    5:30   44.0    34   28.8   222    30.6   999.00     999
 331    5:45  999.0   999  999.0   999   999.0   999.00     999
 331    6:00   44.0    34   29.4   233    34.8   999.00     999
 331    6:15  999.0   999  999.0   228    33.6   999.00     999
 331    6:30  999.0   999  999.0   999   999.0   999.00     999
 331    6:45   44.0   999  999.0   230    33.0   999.00     999
 331    7:00   44.0   999  999.0   999    33.6   999.00     999
 331    7:15   44.0   999  999.0   234    33.0   999.00     999
 331    7:30   44.0   999  999.0   231    36.0   999.00     999
 331    7:45   44.0   999  999.0   229    36.6   999.00     999
 331    8:00   44.0   999  999.0   999    35.4   999.00     999
 331    8:15   45.0    34   34.8   231    37.8   999.00     999
 331    8:30   45.0    32   31.2   242    38.4   999.00     999
 331    8:45   45.0    33   32.4   244    38.4   999.00     999
 331    9:00   45.0    33   32.4   238    36.6   999.00     999

Return to Virginia Peak (RGX) graphs page.


Western Regional Climate Center,wrcc@dri.edu